createdAt,value
2022-08-05T00:01:36.168Z,21.63
2022-08-05T00:04:17.480Z,21.61
2022-08-05T00:06:45.515Z,21.61
2022-08-05T00:09:14.906Z,21.59
2022-08-05T00:11:48.407Z,21.55
2022-08-05T00:14:17.937Z,21.51
2022-08-05T00:16:53.044Z,21.48
2022-08-05T00:19:33.605Z,21.48
2022-08-05T00:22:11.767Z,21.47
2022-08-05T00:24:42.589Z,21.45
2022-08-05T00:27:14.033Z,21.43
2022-08-05T00:29:44.624Z,21.38
2022-08-05T00:32:15.468Z,21.33
2022-08-05T00:35:03.290Z,21.31
2022-08-05T00:37:50.823Z,21.27
2022-08-05T00:40:28.352Z,21.23
2022-08-05T00:42:59.116Z,21.21
2022-08-05T00:45:38.783Z,21.18
2022-08-05T00:48:13.930Z,21.15
2022-08-05T00:50:44.037Z,21.14
2022-08-05T00:54:00.739Z,21.13
2022-08-05T00:56:00.012Z,21.14
2022-08-05T00:58:27.797Z,21.14
2022-08-05T01:00:55.787Z,21.06
2022-08-05T01:03:24.329Z,21.03
2022-08-05T01:05:58.868Z,21.02
2022-08-05T01:08:31.611Z,21.01
2022-08-05T01:11:36.845Z,20.97
2022-08-05T01:14:18.140Z,20.94
2022-08-05T01:17:26.999Z,20.89
2022-08-05T01:20:03.862Z,20.92
2022-08-05T01:23:15.009Z,20.88
2022-08-05T01:26:21.620Z,20.87
2022-08-05T01:29:07.543Z,20.85
2022-08-05T01:31:49.896Z,20.82
2022-08-05T01:34:26.679Z,20.79
2022-08-05T01:37:25.250Z,20.76
2022-08-05T01:39:58.683Z,20.79
2022-08-05T01:42:29.454Z,20.77
2022-08-05T01:45:02.221Z,20.74
2022-08-05T01:47:39.322Z,20.72
2022-08-05T01:50:28.828Z,20.65
2022-08-05T01:53:10.002Z,20.62
2022-08-05T01:55:42.226Z,20.62
2022-08-05T01:58:15.610Z,20.61
2022-08-05T02:00:51.020Z,20.60
2022-08-05T02:03:34.180Z,20.58
2022-08-05T02:06:33.641Z,20.59
2022-08-05T02:08:58.352Z,20.57
2022-08-05T02:11:48.072Z,20.54
2022-08-05T02:14:31.952Z,20.54
2022-08-05T02:17:29.716Z,20.53
2022-08-05T02:20:04.814Z,20.53
2022-08-05T02:22:43.625Z,20.48
2022-08-05T02:25:26.744Z,20.44
2022-08-05T02:28:08.598Z,20.45
2022-08-05T02:30:51.655Z,20.45
2022-08-05T02:33:24.351Z,20.46
2022-08-05T02:36:05.590Z,20.46
2022-08-05T02:38:38.316Z,20.48
2022-08-05T02:41:16.956Z,20.44
2022-08-05T02:44:02.391Z,20.42
2022-08-05T02:46:53.817Z,20.40
2022-08-05T02:49:27.308Z,20.40
2022-08-05T02:52:09.363Z,20.40
2022-08-05T02:54:41.678Z,20.38
2022-08-05T02:58:11.823Z,20.34
2022-08-05T03:00:05.764Z,20.32
2022-08-05T03:02:40.536Z,20.26
2022-08-05T03:05:13.936Z,20.21
2022-08-05T03:08:07.097Z,20.19
2022-08-05T03:10:32.183Z,20.18
2022-08-05T03:15:26.770Z,20.13
2022-08-05T03:17:57.650Z,20.12
2022-08-05T03:20:25.537Z,20.08
2022-08-05T03:22:57.725Z,20.08
2022-08-05T03:25:33.820Z,20.06
2022-08-05T03:28:18.872Z,20.02
2022-08-05T03:30:49.618Z,20.00
2022-08-05T03:33:18.779Z,20.01
2022-08-05T03:35:48.562Z,20.01
2022-08-05T03:38:32.782Z,20.01
2022-08-05T03:41:08.168Z,20.04
2022-08-05T03:44:09.535Z,20.05
2022-08-05T03:46:26.867Z,20.05
2022-08-05T03:48:58.105Z,20.10
2022-08-05T03:52:36.906Z,20.17
2022-08-05T03:56:01.625Z,20.18
2022-08-05T03:57:52.135Z,20.25
2022-08-05T04:00:26.706Z,20.30
2022-08-05T04:02:59.263Z,20.34
2022-08-05T04:05:34.445Z,20.39
2022-08-05T04:08:14.915Z,20.45
2022-08-05T04:10:55.024Z,20.48
2022-08-05T04:13:23.343Z,20.51
2022-08-05T04:16:02.945Z,20.48
2022-08-05T04:18:34.403Z,20.55
2022-08-05T04:21:04.226Z,20.61
2022-08-05T04:24:06.040Z,20.70
2022-08-05T04:26:21.790Z,20.76
2022-08-05T04:28:51.028Z,20.81
2022-08-05T04:31:20.123Z,20.88
2022-08-05T04:34:17.712Z,20.94
2022-08-05T04:36:46.144Z,20.99
2022-08-05T04:39:21.702Z,21.04
2022-08-05T04:41:51.164Z,21.04
2022-08-05T04:44:29.104Z,21.14
2022-08-05T04:46:59.009Z,21.14
2022-08-05T04:49:38.836Z,21.19
2022-08-05T04:52:16.400Z,21.26
2022-08-05T04:54:43.893Z,21.31
2022-08-05T04:57:11.329Z,21.39
2022-08-05T04:59:40.835Z,21.49
2022-08-05T05:02:36.334Z,21.56
2022-08-05T05:05:01.951Z,21.64
2022-08-05T05:07:32.664Z,21.64
2022-08-05T05:10:04.456Z,21.60
2022-08-05T05:12:32.576Z,21.68
2022-08-05T05:14:59.868Z,21.75
2022-08-05T05:17:56.566Z,21.82
2022-08-05T05:20:28.304Z,21.93
2022-08-05T05:23:08.091Z,21.93
2022-08-05T05:25:41.024Z,21.96
2022-08-05T05:28:10.272Z,21.99
2022-08-05T05:30:39.800Z,22.05
2022-08-05T05:33:16.031Z,22.08
2022-08-05T05:35:47.355Z,22.14
2022-08-05T05:38:22.679Z,22.20
2022-08-05T05:40:57.042Z,22.23
2022-08-05T05:43:54.546Z,22.24
2022-08-05T05:46:17.778Z,22.23
2022-08-05T05:48:48.663Z,22.23
2022-08-05T05:51:24.527Z,22.26
2022-08-05T05:53:59.013Z,22.37
2022-08-05T05:56:33.306Z,22.45
2022-08-05T05:59:07.503Z,22.55
2022-08-05T06:01:57.756Z,22.63
2022-08-05T06:04:25.615Z,22.75
2022-08-05T06:06:54.233Z,22.76
2022-08-05T06:09:25.839Z,22.81
2022-08-05T06:12:01.368Z,22.86
2022-08-05T06:14:34.631Z,22.92
2022-08-05T06:17:22.227Z,23.00
2022-08-05T06:19:57.129Z,23.11
2022-08-05T06:22:35.434Z,23.25
2022-08-05T06:25:24.465Z,23.36
2022-08-05T06:28:10.813Z,23.50
2022-08-05T06:30:41.407Z,23.68
2022-08-05T06:33:09.934Z,23.82
2022-08-05T06:36:05.717Z,23.98
2022-08-05T06:38:35.587Z,24.05
2022-08-05T06:41:07.769Z,24.28
2022-08-05T06:43:58.903Z,24.44
2022-08-05T06:46:29.891Z,24.53
2022-08-05T06:49:00.756Z,24.70
2022-08-05T06:51:33.887Z,24.81
2022-08-05T06:54:04.954Z,25.00
2022-08-05T06:56:34.930Z,25.13
2022-08-05T06:59:09.587Z,25.26
2022-08-05T07:01:40.795Z,25.38
2022-08-05T07:04:10.247Z,25.55
2022-08-05T07:06:37.558Z,25.64
2022-08-05T07:09:05.496Z,25.71
2022-08-05T07:11:36.859Z,25.88
2022-08-05T07:14:29.771Z,25.99
2022-08-05T07:17:59.724Z,26.09
2022-08-05T07:22:42.244Z,26.31
2022-08-05T07:25:23.191Z,26.48
2022-08-05T07:28:03.939Z,26.62
2022-08-05T07:30:39.048Z,26.73
2022-08-05T07:33:16.102Z,26.86
2022-08-05T07:36:03.792Z,27.02
2022-08-05T07:38:42.835Z,27.20
2022-08-05T07:42:07.671Z,27.27
2022-08-05T07:44:18.654Z,27.41
2022-08-05T07:46:49.761Z,27.55
2022-08-05T07:49:18.941Z,27.66
2022-08-05T07:51:53.023Z,27.64
2022-08-05T07:54:31.227Z,27.81
2022-08-05T07:57:16.729Z,27.96
2022-08-05T07:59:51.124Z,28.12
2022-08-05T08:02:18.559Z,28.14
2022-08-05T08:04:48.264Z,28.33
2022-08-05T08:07:18.406Z,28.54
2022-08-05T08:09:53.087Z,28.33
2022-08-05T08:12:37.378Z,28.56
2022-08-05T08:15:15.747Z,28.73
2022-08-05T08:17:50.812Z,28.89
2022-08-05T08:20:59.921Z,29.03
2022-08-05T08:23:11.815Z,29.18
2022-08-05T08:25:59.213Z,29.30
2022-08-05T08:28:36.104Z,29.38
2022-08-05T08:31:08.679Z,29.56
2022-08-05T08:33:38.079Z,29.68
2022-08-05T08:38:57.382Z,29.96
2022-08-05T08:41:52.009Z,30.03
2022-08-05T08:45:23.840Z,30.24
2022-08-05T08:47:46.811Z,30.45
2022-08-05T08:50:22.347Z,30.65
2022-08-05T08:53:07.865Z,30.68
2022-08-05T08:56:04.279Z,30.84
2022-08-05T08:58:36.896Z,30.96
2022-08-05T09:01:11.103Z,31.17
2022-08-05T09:03:57.560Z,31.33
2022-08-05T09:06:29.923Z,31.49
2022-08-05T09:09:02.242Z,31.62
2022-08-05T09:11:52.141Z,31.76
2022-08-05T09:14:57.811Z,31.99
2022-08-05T09:17:40.188Z,32.23
2022-08-05T09:20:04.740Z,32.47
2022-08-05T09:23:18.598Z,32.75
2022-08-05T09:26:06.504Z,33.63
2022-08-05T09:28:39.697Z,39.25
2022-08-05T09:32:38.509Z,46.77
2022-08-05T09:34:03.412Z,52.86
2022-08-05T09:36:56.257Z,56.98
2022-08-05T09:39:44.892Z,59.40
2022-08-05T09:42:24.002Z,62.75
2022-08-05T09:45:17.753Z,65.09
2022-08-05T09:47:55.362Z,67.36
2022-08-05T09:50:43.945Z,68.60
2022-08-05T09:53:23.015Z,69.84
2022-08-05T09:56:11.427Z,70.66
2022-08-05T09:58:41.840Z,71.48
2022-08-05T10:01:15.594Z,72.06
2022-08-05T10:04:04.645Z,72.86
2022-08-05T10:06:58.999Z,73.65
2022-08-05T10:09:29.290Z,74.13
2022-08-05T10:12:30.269Z,74.47
2022-08-05T10:15:36.063Z,74.96
2022-08-05T10:18:20.229Z,75.50
2022-08-05T10:20:54.240Z,75.81
2022-08-05T10:23:56.439Z,76.58
2022-08-05T10:26:32.773Z,76.94
2022-08-05T10:29:02.683Z,76.21
2022-08-05T10:32:54.431Z,76.26
2022-08-05T10:34:25.876Z,76.67
2022-08-05T10:36:57.785Z,76.44
2022-08-05T10:40:03.047Z,77.14
2022-08-05T10:42:33.582Z,77.30
2022-08-05T10:45:21.249Z,75.52
2022-08-05T10:48:29.765Z,74.81
2022-08-05T10:50:58.883Z,74.89
2022-08-05T10:53:51.847Z,73.42
2022-08-05T10:56:29.225Z,67.42
2022-08-05T10:59:12.282Z,61.65
2022-08-05T11:02:02.847Z,57.76
2022-08-05T11:04:42.498Z,54.67
2022-08-05T11:07:16.652Z,52.67
2022-08-05T11:09:49.595Z,50.59
2022-08-05T11:12:37.243Z,48.62
2022-08-05T11:15:19.761Z,46.91
2022-08-05T11:17:59.038Z,45.67
2022-08-05T11:20:38.986Z,44.36
2022-08-05T11:24:04.818Z,42.94
2022-08-05T11:26:39.091Z,42.45
2022-08-05T11:29:13.853Z,42.07
2022-08-05T11:31:56.561Z,41.71
2022-08-05T11:34:52.125Z,41.36
2022-08-05T11:38:28.065Z,41.08
2022-08-05T11:41:01.715Z,40.33
2022-08-05T11:44:05.025Z,40.02
2022-08-05T11:47:10.181Z,39.80
2022-08-05T11:49:39.827Z,39.88
2022-08-05T11:52:11.349Z,39.75
2022-08-05T11:54:40.368Z,39.59
2022-08-05T11:57:25.947Z,39.75
2022-08-05T11:59:55.173Z,39.46
2022-08-05T12:02:31.395Z,39.51
2022-08-05T12:05:06.900Z,39.57
2022-08-05T12:08:09.186Z,39.64
2022-08-05T12:10:45.550Z,39.65
2022-08-05T12:13:18.626Z,39.67
2022-08-05T12:15:56.130Z,39.49
2022-08-05T12:18:38.684Z,39.47
2022-08-05T12:21:15.946Z,39.53
2022-08-05T12:24:04.409Z,39.47
2022-08-05T12:26:37.824Z,39.35
2022-08-05T12:29:17.922Z,39.29
2022-08-05T12:31:56.806Z,39.30
2022-08-05T12:34:31.893Z,39.38
2022-08-05T12:37:17.315Z,39.35
2022-08-05T12:40:03.593Z,39.35
2022-08-05T12:42:40.465Z,39.32
2022-08-05T12:45:10.428Z,39.25
2022-08-05T12:48:01.043Z,39.13
2022-08-05T12:50:26.629Z,38.81
2022-08-05T12:53:00.106Z,38.76
2022-08-05T12:55:32.768Z,38.68
2022-08-05T12:58:50.507Z,38.56
2022-08-05T13:02:01.011Z,38.53
2022-08-05T13:03:42.023Z,38.54
2022-08-05T13:06:17.874Z,38.56
2022-08-05T13:08:51.866Z,38.44
2022-08-05T13:12:01.781Z,38.53
2022-08-05T13:14:36.147Z,38.47
2022-08-05T13:17:31.533Z,38.62
2022-08-05T13:20:05.285Z,38.80
2022-08-05T13:22:36.761Z,38.84
2022-08-05T13:25:19.420Z,38.90
2022-08-05T13:27:57.503Z,38.90
2022-08-05T13:30:35.275Z,38.65
2022-08-05T13:33:04.699Z,38.62
2022-08-05T13:35:50.314Z,38.60
2022-08-05T13:38:31.057Z,38.69
2022-08-05T13:41:04.001Z,38.66
2022-08-05T13:43:45.581Z,38.70
2022-08-05T13:46:35.739Z,38.62
2022-08-05T13:49:11.602Z,38.69
2022-08-05T13:51:46.096Z,38.81
2022-08-05T13:54:17.091Z,38.89
2022-08-05T13:56:51.418Z,38.79
2022-08-05T13:59:23.763Z,38.82
2022-08-05T14:01:59.235Z,38.75
2022-08-05T14:04:52.121Z,38.70
2022-08-05T14:07:59.844Z,38.61
2022-08-05T14:10:28.521Z,38.70
2022-08-05T14:12:58.800Z,38.75
2022-08-05T14:16:07.366Z,38.71
2022-08-05T14:18:18.071Z,38.73
2022-08-05T14:20:48.223Z,38.76
2022-08-05T14:23:24.663Z,38.53
2022-08-05T14:25:58.867Z,38.24
2022-08-05T14:28:30.884Z,38.10
2022-08-05T14:31:01.055Z,38.06
2022-08-05T14:33:32.562Z,38.07
2022-08-05T14:36:21.642Z,38.00
2022-08-05T14:38:50.924Z,38.08
2022-08-05T14:41:18.815Z,38.02
2022-08-05T14:44:00.167Z,38.03
2022-08-05T14:46:35.103Z,38.08
2022-08-05T14:49:07.536Z,38.03
2022-08-05T14:51:42.400Z,38.04
2022-08-05T14:54:27.547Z,37.95
2022-08-05T14:56:58.158Z,37.90
2022-08-05T14:59:29.742Z,37.80
2022-08-05T15:02:14.828Z,37.80
2022-08-05T15:04:45.014Z,37.85
2022-08-05T15:08:05.736Z,37.66
2022-08-05T15:10:03.333Z,37.57
2022-08-05T15:12:51.345Z,37.56
2022-08-05T15:15:55.307Z,37.47
2022-08-05T15:18:06.712Z,37.47
2022-08-05T15:20:34.299Z,37.43
2022-08-05T15:23:11.359Z,37.31
2022-08-05T15:25:52.321Z,37.16
2022-08-05T15:28:27.128Z,37.23
2022-08-05T15:30:56.240Z,37.29
2022-08-05T15:34:04.282Z,37.26
2022-08-05T15:36:17.557Z,37.26
2022-08-05T15:41:00.837Z,37.32
2022-08-05T15:41:55.985Z,37.30
2022-08-05T15:44:29.960Z,37.22
2022-08-05T15:47:00.840Z,37.04
2022-08-05T15:49:40.829Z,37.01
2022-08-05T15:52:29.382Z,36.92
2022-08-05T15:54:58.286Z,36.84
2022-08-05T15:57:32.934Z,36.83
2022-08-05T16:00:00.464Z,36.80
2022-08-05T16:02:30.344Z,36.80
2022-08-05T16:04:58.897Z,36.78
2022-08-05T16:07:26.299Z,36.70
2022-08-05T16:09:58.264Z,36.69
2022-08-05T16:12:26.196Z,36.65
2022-08-05T16:14:53.577Z,36.57
2022-08-05T16:17:21.239Z,36.48
2022-08-05T16:20:05.075Z,36.43
2022-08-05T16:22:37.020Z,36.32
2022-08-05T16:25:09.469Z,36.18
2022-08-05T16:27:46.968Z,36.12
2022-08-05T16:30:29.015Z,35.98
2022-08-05T16:32:58.158Z,35.90
2022-08-05T16:35:28.301Z,35.87
2022-08-05T16:38:01.756Z,35.84
2022-08-05T16:40:51.846Z,35.66
2022-08-05T16:43:26.530Z,35.54
2022-08-05T16:46:04.521Z,35.52
2022-08-05T16:48:38.336Z,35.45
2022-08-05T16:51:09.879Z,35.39
2022-08-05T16:54:06.104Z,35.35
2022-08-05T16:56:33.841Z,35.30
2022-08-05T16:59:10.541Z,35.20
2022-08-05T17:01:54.541Z,35.13
2022-08-05T17:04:28.492Z,35.06
2022-08-05T17:07:01.036Z,34.99
2022-08-05T17:09:30.437Z,34.93
2022-08-05T17:12:06.627Z,34.87
2022-08-05T17:14:37.187Z,34.87
2022-08-05T17:17:09.477Z,34.75
2022-08-05T17:19:45.702Z,34.70
2022-08-05T17:22:25.125Z,34.64
2022-08-05T17:24:58.662Z,34.54
2022-08-05T17:27:33.502Z,34.46
2022-08-05T17:30:07.151Z,34.37
2022-08-05T17:32:45.823Z,34.29
2022-08-05T17:35:15.423Z,34.23
2022-08-05T17:37:45.204Z,34.13
2022-08-05T17:40:17.144Z,33.94
2022-08-05T17:42:51.926Z,33.75
2022-08-05T17:45:25.041Z,33.48
2022-08-05T17:47:58.092Z,33.38
2022-08-05T17:50:30.574Z,33.39
2022-08-05T17:53:01.205Z,33.44
2022-08-05T17:55:37.735Z,33.28
2022-08-05T17:58:13.426Z,33.14
2022-08-05T18:00:47.606Z,32.96
2022-08-05T18:03:56.327Z,32.81
2022-08-05T18:06:12.160Z,32.62
2022-08-05T18:08:52.171Z,32.51
2022-08-05T18:11:24.235Z,32.37
2022-08-05T18:13:54.097Z,32.15
2022-08-05T18:16:21.397Z,32.13
2022-08-05T18:18:50.128Z,32.05
2022-08-05T18:21:19.992Z,31.96
2022-08-05T18:23:53.434Z,31.92
2022-08-05T18:26:27.819Z,31.77
2022-08-05T18:28:57.938Z,31.75
2022-08-05T18:31:25.529Z,31.67
2022-08-05T18:34:00.441Z,31.48
2022-08-05T18:36:28.402Z,31.37
2022-08-05T18:38:56.473Z,31.26
2022-08-05T18:41:57.289Z,31.06
2022-08-05T18:44:12.763Z,30.92
2022-08-05T18:46:40.995Z,30.76
2022-08-05T18:49:30.671Z,30.64
2022-08-05T18:52:32.979Z,30.52
2022-08-05T18:55:05.480Z,30.37
2022-08-05T18:57:43.169Z,30.27
2022-08-05T19:00:20.535Z,30.15
2022-08-05T19:02:48.571Z,30.09
2022-08-05T19:06:11.177Z,29.99
2022-08-05T19:08:13.388Z,29.90
2022-08-05T19:10:41.617Z,29.84
2022-08-05T19:13:12.239Z,29.79
2022-08-05T19:15:58.902Z,29.70
2022-08-05T19:18:31.956Z,29.64
2022-08-05T19:20:59.875Z,29.57
2022-08-05T19:24:07.431Z,29.53
2022-08-05T19:26:16.706Z,29.43
2022-08-05T19:28:44.558Z,29.36
2022-08-05T19:31:19.248Z,29.31
2022-08-05T19:33:56.628Z,29.23
2022-08-05T19:36:26.412Z,29.18
2022-08-05T19:39:01.208Z,29.10
2022-08-05T19:41:58.323Z,29.03
2022-08-05T19:44:19.341Z,29.00
2022-08-05T19:46:47.473Z,28.97
2022-08-05T19:49:18.046Z,28.91
2022-08-05T19:52:09.306Z,28.86
2022-08-05T19:54:35.399Z,28.78
2022-08-05T19:57:09.634Z,28.78
2022-08-05T19:59:55.247Z,28.72
2022-08-05T20:02:31.507Z,28.69
2022-08-05T20:04:59.899Z,28.64
2022-08-05T20:07:45.903Z,28.62
2022-08-05T20:10:19.358Z,28.56
2022-08-05T20:12:49.623Z,28.53
2022-08-05T20:15:23.330Z,28.50
2022-08-05T20:18:10.750Z,28.43
2022-08-05T20:20:57.081Z,28.42
2022-08-05T20:23:40.409Z,28.41
2022-08-05T20:26:16.568Z,28.34
2022-08-05T20:28:55.871Z,28.17
2022-08-05T20:31:37.281Z,28.17
2022-08-05T20:34:14.022Z,28.17
2022-08-05T20:36:43.046Z,28.10
2022-08-05T20:39:16.478Z,28.08
2022-08-05T20:41:47.645Z,28.07
2022-08-05T20:44:30.655Z,27.99
2022-08-05T20:47:05.370Z,27.92
2022-08-05T20:49:39.592Z,27.97
2022-08-05T20:52:07.867Z,27.95
2022-08-05T20:54:43.496Z,27.94
2022-08-05T20:57:43.173Z,27.89
2022-08-05T21:00:40.789Z,27.85
2022-08-05T21:03:06.882Z,27.80
2022-08-05T21:05:48.132Z,27.76
2022-08-05T21:08:26.663Z,27.69
2022-08-05T21:11:12.255Z,27.66
2022-08-05T21:13:55.904Z,27.65
2022-08-05T21:16:29.429Z,27.62
2022-08-05T21:19:03.644Z,27.57
2022-08-05T21:21:39.206Z,27.54
2022-08-05T21:24:15.607Z,27.50
2022-08-05T21:26:53.099Z,27.42
2022-08-05T21:29:26.156Z,27.44
2022-08-05T21:31:54.617Z,27.44
2022-08-05T21:34:25.728Z,27.40
2022-08-05T21:36:55.598Z,27.38
2022-08-05T21:39:26.569Z,27.39
2022-08-05T21:42:01.237Z,27.39
2022-08-05T21:44:31.035Z,27.37
2022-08-05T21:47:00.157Z,27.38
2022-08-05T21:49:48.620Z,27.38
2022-08-05T21:52:28.124Z,27.34
2022-08-05T21:55:05.989Z,27.31
2022-08-05T21:57:42.738Z,27.29
2022-08-05T22:00:12.949Z,27.26
2022-08-05T22:02:42.573Z,27.23
2022-08-05T22:05:13.853Z,27.14
2022-08-05T22:07:58.904Z,27.07
2022-08-05T22:10:27.765Z,26.99
2022-08-05T22:13:09.129Z,26.91
2022-08-05T22:16:01.874Z,26.84
2022-08-05T22:18:34.764Z,26.82
2022-08-05T22:21:03.956Z,26.75
2022-08-05T22:24:01.711Z,26.69
2022-08-05T22:26:50.532Z,26.61
2022-08-05T22:29:19.001Z,26.50
2022-08-05T22:31:59.120Z,26.44
2022-08-05T22:34:28.883Z,26.40
2022-08-05T22:36:58.897Z,26.34
2022-08-05T22:39:33.367Z,26.33
2022-08-05T22:42:12.715Z,26.28
2022-08-05T22:44:53.790Z,26.23
2022-08-05T22:47:29.651Z,26.18
2022-08-05T22:50:19.961Z,26.06
2022-08-05T22:52:52.474Z,26.03
2022-08-05T22:55:22.126Z,26.01
2022-08-05T22:57:52.179Z,26.06
2022-08-05T23:00:23.024Z,26.05
2022-08-05T23:02:53.519Z,26.07
2022-08-05T23:05:23.033Z,26.07
2022-08-05T23:07:51.887Z,26.05
2022-08-05T23:10:24.077Z,26.02
2022-08-05T23:12:55.781Z,26.00
2022-08-05T23:15:34.735Z,25.99
2022-08-05T23:18:06.045Z,25.98
2022-08-05T23:20:43.056Z,25.98
2022-08-05T23:23:10.958Z,25.96
2022-08-05T23:25:52.100Z,25.94
2022-08-05T23:28:28.650Z,25.93
2022-08-05T23:31:15.772Z,25.91
2022-08-05T23:34:03.932Z,25.90
2022-08-05T23:36:39.875Z,25.92
2022-08-05T23:39:16.595Z,25.96
2022-08-05T23:41:51.613Z,25.99
2022-08-05T23:44:22.592Z,25.98
2022-08-05T23:46:52.507Z,25.95
2022-08-05T23:49:23.762Z,25.95
2022-08-05T23:52:11.537Z,25.91
2022-08-05T23:54:38.930Z,25.83
2022-08-05T23:57:08.077Z,25.58
